sensor_id;sensor_type;location;lat;lon;timestamp;pressure;altitude;pressure_sealevel;temperature;humidity
74790;BME280;63318;52.406;13.416;2023-08-06T00:02:18;100454.10;;;17.15;75.01
74790;BME280;63318;52.406;13.416;2023-08-06T00:04:46;100451.77;;;17.13;75.16
74790;BME280;63318;52.406;13.416;2023-08-06T00:07:14;100456.60;;;17.12;75.38
74790;BME280;63318;52.406;13.416;2023-08-06T00:09:42;100456.79;;;17.11;75.45
74790;BME280;63318;52.406;13.416;2023-08-06T00:12:10;100452.48;;;17.10;75.57
74790;BME280;63318;52.406;13.416;2023-08-06T00:14:39;100448.98;;;17.09;75.50
74790;BME280;63318;52.406;13.416;2023-08-06T00:17:07;100440.00;;;17.07;75.56
74790;BME280;63318;52.406;13.416;2023-08-06T00:19:35;100436.73;;;17.06;75.51
74790;BME280;63318;52.406;13.416;2023-08-06T00:22:04;100435.54;;;17.05;75.68
74790;BME280;63318;52.406;13.416;2023-08-06T00:24:32;100435.40;;;17.04;75.62
74790;BME280;63318;52.406;13.416;2023-08-06T00:27:00;100434.04;;;17.02;75.73
74790;BME280;63318;52.406;13.416;2023-08-06T00:29:29;100430.20;;;17.01;75.81
74790;BME280;63318;52.406;13.416;2023-08-06T00:31:57;100429.41;;;16.99;75.88
74790;BME280;63318;52.406;13.416;2023-08-06T00:34:25;100433.73;;;16.97;76.02
74790;BME280;63318;52.406;13.416;2023-08-06T00:36:53;100433.13;;;16.97;76.05
74790;BME280;63318;52.406;13.416;2023-08-06T00:39:22;100430.41;;;16.96;75.98
74790;BME280;63318;52.406;13.416;2023-08-06T00:41:50;100429.23;;;16.94;76.20
74790;BME280;63318;52.406;13.416;2023-08-06T00:44:18;100426.51;;;16.93;76.16
74790;BME280;63318;52.406;13.416;2023-08-06T00:46:46;100426.14;;;16.92;76.35
74790;BME280;63318;52.406;13.416;2023-08-06T00:49:15;100424.87;;;16.91;76.52
74790;BME280;63318;52.406;13.416;2023-08-06T00:51:43;100426.89;;;16.89;76.77
74790;BME280;63318;52.406;13.416;2023-08-06T00:54:12;100431.70;;;16.88;76.80
74790;BME280;63318;52.406;13.416;2023-08-06T00:56:43;100426.61;;;16.87;76.89
74790;BME280;63318;52.406;13.416;2023-08-06T00:59:12;100424.98;;;16.87;77.09
74790;BME280;63318;52.406;13.416;2023-08-06T01:01:40;100421.76;;;16.86;77.15
74790;BME280;63318;52.406;13.416;2023-08-06T01:04:09;100423.31;;;16.85;77.16
74790;BME280;63318;52.406;13.416;2023-08-06T01:06:43;100424.73;;;16.85;77.33
74790;BME280;63318;52.406;13.416;2023-08-06T01:09:25;100423.18;;;16.84;77.28
74790;BME280;63318;52.406;13.416;2023-08-06T01:12:03;100414.84;;;16.82;77.36
74790;BME280;63318;52.406;13.416;2023-08-06T01:14:41;100417.08;;;16.81;77.33
74790;BME280;63318;52.406;13.416;2023-08-06T01:17:11;100415.71;;;16.80;77.25
74790;BME280;63318;52.406;13.416;2023-08-06T01:19:40;100412.29;;;16.78;77.43
74790;BME280;63318;52.406;13.416;2023-08-06T01:22:08;100407.55;;;16.77;77.40
74790;BME280;63318;52.406;13.416;2023-08-06T01:24:37;100408.38;;;16.75;77.53
74790;BME280;63318;52.406;13.416;2023-08-06T01:27:09;100398.93;;;16.74;77.52
74790;BME280;63318;52.406;13.416;2023-08-06T01:29:43;100396.75;;;16.72;77.58
74790;BME280;63318;52.406;13.416;2023-08-06T01:32:13;100390.56;;;16.70;77.64
74790;BME280;63318;52.406;13.416;2023-08-06T01:34:43;100387.29;;;16.69;77.76
74790;BME280;63318;52.406;13.416;2023-08-06T01:37:13;100386.33;;;16.67;77.69
74790;BME280;63318;52.406;13.416;2023-08-06T01:39:43;100383.42;;;16.65;77.82
74790;BME280;63318;52.406;13.416;2023-08-06T01:42:12;100381.33;;;16.63;77.86
74790;BME280;63318;52.406;13.416;2023-08-06T01:44:40;100376.96;;;16.61;77.83
74790;BME280;63318;52.406;13.416;2023-08-06T01:47:08;100374.84;;;16.59;77.95
74790;BME280;63318;52.406;13.416;2023-08-06T01:49:36;100375.29;;;16.56;77.95
74790;BME280;63318;52.406;13.416;2023-08-06T01:52:05;100374.56;;;16.55;77.93
74790;BME280;63318;52.406;13.416;2023-08-06T01:54:34;100371.42;;;16.53;78.09
74790;BME280;63318;52.406;13.416;2023-08-06T01:57:02;100366.75;;;16.51;78.26
74790;BME280;63318;52.406;13.416;2023-08-06T01:59:30;100365.52;;;16.50;78.25
74790;BME280;63318;52.406;13.416;2023-08-06T02:01:58;100360.20;;;16.47;78.25
74790;BME280;63318;52.406;13.416;2023-08-06T02:04:26;100356.24;;;16.45;78.19
74790;BME280;63318;52.406;13.416;2023-08-06T02:06:55;100356.59;;;16.43;78.31
74790;BME280;63318;52.406;13.416;2023-08-06T02:09:23;100358.45;;;16.40;78.67
74790;BME280;63318;52.406;13.416;2023-08-06T02:11:51;100354.02;;;16.38;78.63
74790;BME280;63318;52.406;13.416;2023-08-06T02:14:20;100351.84;;;16.36;78.72
74790;BME280;63318;52.406;13.416;2023-08-06T02:16:48;100353.67;;;16.35;78.76
74790;BME280;63318;52.406;13.416;2023-08-06T02:19:16;100351.71;;;16.32;78.88
74790;BME280;63318;52.406;13.416;2023-08-06T02:21:44;100351.74;;;16.31;78.96
74790;BME280;63318;52.406;13.416;2023-08-06T02:24:13;100349.83;;;16.30;78.85
74790;BME280;63318;52.406;13.416;2023-08-06T02:26:41;100350.71;;;16.28;78.96
74790;BME280;63318;52.406;13.416;2023-08-06T02:29:09;100345.58;;;16.27;79.10
74790;BME280;63318;52.406;13.416;2023-08-06T02:31:37;100344.27;;;16.26;79.30
74790;BME280;63318;52.406;13.416;2023-08-06T02:34:05;100337.57;;;16.25;79.30
74790;BME280;63318;52.406;13.416;2023-08-06T02:36:34;100331.56;;;16.23;79.38
74790;BME280;63318;52.406;13.416;2023-08-06T02:39:02;100328.03;;;16.23;79.51
74790;BME280;63318;52.406;13.416;2023-08-06T02:41:30;100321.55;;;16.22;79.67
74790;BME280;63318;52.406;13.416;2023-08-06T02:43:58;100321.27;;;16.21;79.38
74790;BME280;63318;52.406;13.416;2023-08-06T02:46:26;100317.75;;;16.20;79.51
74790;BME280;63318;52.406;13.416;2023-08-06T02:48:54;100319.06;;;16.19;79.65
74790;BME280;63318;52.406;13.416;2023-08-06T02:51:23;100314.94;;;16.18;79.64
74790;BME280;63318;52.406;13.416;2023-08-06T02:53:51;100313.13;;;16.17;79.71
74790;BME280;63318;52.406;13.416;2023-08-06T02:56:19;100318.65;;;16.15;79.66
74790;BME280;63318;52.406;13.416;2023-08-06T02:58:47;100320.55;;;16.14;79.68
74790;BME280;63318;52.406;13.416;2023-08-06T03:01:15;100319.13;;;16.12;79.69
74790;BME280;63318;52.406;13.416;2023-08-06T03:03:44;100316.64;;;16.11;79.94
74790;BME280;63318;52.406;13.416;2023-08-06T03:06:12;100317.79;;;16.10;79.80
74790;BME280;63318;52.406;13.416;2023-08-06T03:08:40;100317.63;;;16.08;79.83
74790;BME280;63318;52.406;13.416;2023-08-06T03:11:08;100315.84;;;16.06;79.73
74790;BME280;63318;52.406;13.416;2023-08-06T03:13:36;100315.83;;;16.04;79.61
74790;BME280;63318;52.406;13.416;2023-08-06T03:16:05;100313.14;;;16.02;79.80
74790;BME280;63318;52.406;13.416;2023-08-06T03:18:33;100309.60;;;16.00;79.90
74790;BME280;63318;52.406;13.416;2023-08-06T03:21:01;100304.55;;;15.98;79.94
74790;BME280;63318;52.406;13.416;2023-08-06T03:23:29;100296.62;;;15.97;79.96
74790;BME280;63318;52.406;13.416;2023-08-06T03:26:00;100295.59;;;15.95;80.16
74790;BME280;63318;52.406;13.416;2023-08-06T03:28:28;100294.95;;;15.94;80.20
74790;BME280;63318;52.406;13.416;2023-08-06T03:31:02;100290.06;;;15.92;80.20
74790;BME280;63318;52.406;13.416;2023-08-06T03:33:30;100280.98;;;15.91;80.25
74790;BME280;63318;52.406;13.416;2023-08-06T03:35:59;100278.27;;;15.90;80.28
74790;BME280;63318;52.406;13.416;2023-08-06T03:38:27;100276.64;;;15.90;80.15
74790;BME280;63318;52.406;13.416;2023-08-06T03:40:55;100274.33;;;15.88;80.41
74790;BME280;63318;52.406;13.416;2023-08-06T03:43:23;100271.20;;;15.88;80.58
74790;BME280;63318;52.406;13.416;2023-08-06T03:45:51;100267.30;;;15.87;80.52
74790;BME280;63318;52.406;13.416;2023-08-06T03:48:20;100262.85;;;15.86;80.46
74790;BME280;63318;52.406;13.416;2023-08-06T03:50:48;100262.70;;;15.85;80.61
74790;BME280;63318;52.406;13.416;2023-08-06T03:53:16;100260.92;;;15.85;80.67
74790;BME280;63318;52.406;13.416;2023-08-06T03:55:44;100258.98;;;15.84;80.80
74790;BME280;63318;52.406;13.416;2023-08-06T03:58:12;100254.80;;;15.83;80.78
74790;BME280;63318;52.406;13.416;2023-08-06T04:00:41;100251.34;;;15.83;80.86
74790;BME280;63318;52.406;13.416;2023-08-06T04:03:09;100250.52;;;15.83;80.89
74790;BME280;63318;52.406;13.416;2023-08-06T04:05:37;100251.16;;;15.83;80.89
74790;BME280;63318;52.406;13.416;2023-08-06T04:08:05;100249.70;;;15.83;81.02
74790;BME280;63318;52.406;13.416;2023-08-06T04:10:33;100248.04;;;15.83;81.17
74790;BME280;63318;52.406;13.416;2023-08-06T04:13:02;100244.67;;;15.83;81.24
74790;BME280;63318;52.406;13.416;2023-08-06T04:15:30;100243.09;;;15.83;81.38
74790;BME280;63318;52.406;13.416;2023-08-06T04:18:01;100237.20;;;15.84;81.34
74790;BME280;63318;52.406;13.416;2023-08-06T04:20:29;100233.86;;;15.85;81.37
74790;BME280;63318;52.406;13.416;2023-08-06T04:22:57;100231.33;;;15.85;81.57
74790;BME280;63318;52.406;13.416;2023-08-06T04:25:25;100225.73;;;15.85;81.59
74790;BME280;63318;52.406;13.416;2023-08-06T04:27:54;100224.48;;;15.86;81.61
74790;BME280;63318;52.406;13.416;2023-08-06T04:30:22;100217.88;;;15.86;81.57
74790;BME280;63318;52.406;13.416;2023-08-06T04:32:51;100214.04;;;15.86;81.57
74790;BME280;63318;52.406;13.416;2023-08-06T04:35:19;100213.65;;;15.86;81.69
74790;BME280;63318;52.406;13.416;2023-08-06T04:37:47;100209.75;;;15.87;81.70
74790;BME280;63318;52.406;13.416;2023-08-06T04:40:15;100207.50;;;15.87;81.84
74790;BME280;63318;52.406;13.416;2023-08-06T04:42:44;100202.35;;;15.88;81.88
74790;BME280;63318;52.406;13.416;2023-08-06T04:45:12;100201.77;;;15.89;81.86
74790;BME280;63318;52.406;13.416;2023-08-06T04:47:40;100195.54;;;15.89;81.99
74790;BME280;63318;52.406;13.416;2023-08-06T04:50:09;100191.25;;;15.90;81.82
74790;BME280;63318;52.406;13.416;2023-08-06T04:52:38;100189.50;;;15.90;81.93
74790;BME280;63318;52.406;13.416;2023-08-06T04:55:07;100189.17;;;15.92;81.97
74790;BME280;63318;52.406;13.416;2023-08-06T04:57:35;100187.06;;;15.93;82.07
74790;BME280;63318;52.406;13.416;2023-08-06T05:00:05;100186.13;;;15.95;82.27
74790;BME280;63318;52.406;13.416;2023-08-06T05:02:33;100186.64;;;15.96;82.16
74790;BME280;63318;52.406;13.416;2023-08-06T05:05:02;100185.11;;;15.97;82.32
74790;BME280;63318;52.406;13.416;2023-08-06T05:07:30;100187.79;;;15.97;82.29
74790;BME280;63318;52.406;13.416;2023-08-06T05:09:58;100186.52;;;15.99;82.29
74790;BME280;63318;52.406;13.416;2023-08-06T05:12:26;100185.86;;;16.01;82.19
74790;BME280;63318;52.406;13.416;2023-08-06T05:14:54;100180.12;;;16.01;82.37
74790;BME280;63318;52.406;13.416;2023-08-06T05:17:23;100176.01;;;16.02;82.29
74790;BME280;63318;52.406;13.416;2023-08-06T05:19:51;100172.70;;;16.03;82.25
74790;BME280;63318;52.406;13.416;2023-08-06T05:22:19;100167.37;;;16.04;82.23
74790;BME280;63318;52.406;13.416;2023-08-06T05:24:47;100165.99;;;16.05;82.31
74790;BME280;63318;52.406;13.416;2023-08-06T05:27:15;100163.95;;;16.06;82.34
74790;BME280;63318;52.406;13.416;2023-08-06T05:29:44;100159.83;;;16.07;82.29
74790;BME280;63318;52.406;13.416;2023-08-06T05:32:12;100160.86;;;16.08;82.23
74790;BME280;63318;52.406;13.416;2023-08-06T05:34:40;100156.98;;;16.09;82.14
74790;BME280;63318;52.406;13.416;2023-08-06T05:37:08;100153.25;;;16.10;82.38
74790;BME280;63318;52.406;13.416;2023-08-06T05:39:37;100151.92;;;16.11;82.32
74790;BME280;63318;52.406;13.416;2023-08-06T05:42:06;100149.94;;;16.12;82.40
74790;BME280;63318;52.406;13.416;2023-08-06T05:44:34;100150.45;;;16.13;82.32
74790;BME280;63318;52.406;13.416;2023-08-06T05:47:03;100148.24;;;16.14;82.29
74790;BME280;63318;52.406;13.416;2023-08-06T05:49:31;100149.67;;;16.15;82.39
74790;BME280;63318;52.406;13.416;2023-08-06T05:52:00;100146.84;;;16.16;82.42
74790;BME280;63318;52.406;13.416;2023-08-06T05:54:28;100148.25;;;16.17;82.36
74790;BME280;63318;52.406;13.416;2023-08-06T05:56:56;100148.13;;;16.18;82.35
74790;BME280;63318;52.406;13.416;2023-08-06T05:59:24;100143.45;;;16.19;82.22
74790;BME280;63318;52.406;13.416;2023-08-06T06:01:52;100140.45;;;16.20;82.26
74790;BME280;63318;52.406;13.416;2023-08-06T06:04:21;100143.88;;;16.21;82.28
74790;BME280;63318;52.406;13.416;2023-08-06T06:06:49;100140.98;;;16.22;82.30
74790;BME280;63318;52.406;13.416;2023-08-06T06:09:17;100142.98;;;16.23;82.32
74790;BME280;63318;52.406;13.416;2023-08-06T06:11:45;100144.52;;;16.26;82.41
74790;BME280;63318;52.406;13.416;2023-08-06T06:14:13;100141.71;;;16.27;82.59
74790;BME280;63318;52.406;13.416;2023-08-06T06:16:42;100140.66;;;16.29;82.46
74790;BME280;63318;52.406;13.416;2023-08-06T06:19:10;100137.08;;;16.31;82.43
74790;BME280;63318;52.406;13.416;2023-08-06T06:21:38;100133.64;;;16.33;82.52
74790;BME280;63318;52.406;13.416;2023-08-06T06:24:06;100128.96;;;16.35;82.59
74790;BME280;63318;52.406;13.416;2023-08-06T06:26:35;100128.84;;;16.38;82.55
74790;BME280;63318;52.406;13.416;2023-08-06T06:29:03;100125.02;;;16.40;82.40
74790;BME280;63318;52.406;13.416;2023-08-06T06:31:31;100121.70;;;16.42;82.52
74790;BME280;63318;52.406;13.416;2023-08-06T06:33:59;100118.96;;;16.43;82.33
74790;BME280;63318;52.406;13.416;2023-08-06T06:36:27;100114.98;;;16.45;82.22
74790;BME280;63318;52.406;13.416;2023-08-06T06:38:56;100116.81;;;16.46;82.37
74790;BME280;63318;52.406;13.416;2023-08-06T06:41:24;100117.21;;;16.47;82.33
74790;BME280;63318;52.406;13.416;2023-08-06T06:43:52;100119.78;;;16.49;82.38
74790;BME280;63318;52.406;13.416;2023-08-06T06:46:20;100118.59;;;16.51;82.41
74790;BME280;63318;52.406;13.416;2023-08-06T06:48:49;100117.38;;;16.52;82.47
74790;BME280;63318;52.406;13.416;2023-08-06T06:51:17;100117.77;;;16.53;82.33
74790;BME280;63318;52.406;13.416;2023-08-06T06:53:45;100117.11;;;16.55;82.48
74790;BME280;63318;52.406;13.416;2023-08-06T06:56:13;100114.21;;;16.56;82.42
74790;BME280;63318;52.406;13.416;2023-08-06T06:58:41;100119.86;;;16.59;82.48
74790;BME280;63318;52.406;13.416;2023-08-06T07:01:11;100122.66;;;16.60;82.41
74790;BME280;63318;52.406;13.416;2023-08-06T07:03:39;100122.37;;;16.62;82.38
74790;BME280;63318;52.406;13.416;2023-08-06T07:06:08;100125.80;;;16.64;82.39
74790;BME280;63318;52.406;13.416;2023-08-06T07:08:36;100127.09;;;16.65;82.64
74790;BME280;63318;52.406;13.416;2023-08-06T07:11:05;100125.20;;;16.68;82.59
74790;BME280;63318;52.406;13.416;2023-08-06T07:13:36;100125.67;;;16.72;82.60
74790;BME280;63318;52.406;13.416;2023-08-06T07:16:04;100127.91;;;16.75;82.71
74790;BME280;63318;52.406;13.416;2023-08-06T07:18:33;100127.58;;;16.78;82.74
74790;BME280;63318;52.406;13.416;2023-08-06T07:21:01;100129.73;;;16.81;82.61
74790;BME280;63318;52.406;13.416;2023-08-06T07:23:29;100131.48;;;16.84;82.45
74790;BME280;63318;52.406;13.416;2023-08-06T07:25:57;100130.19;;;16.86;82.25
74790;BME280;63318;52.406;13.416;2023-08-06T07:28:25;100126.42;;;16.88;82.20
74790;BME280;63318;52.406;13.416;2023-08-06T07:30:54;100129.52;;;16.91;82.32
74790;BME280;63318;52.406;13.416;2023-08-06T07:33:22;100127.56;;;16.94;82.34
74790;BME280;63318;52.406;13.416;2023-08-06T07:35:50;100128.32;;;16.96;82.32
74790;BME280;63318;52.406;13.416;2023-08-06T07:38:18;100126.14;;;16.97;82.21
74790;BME280;63318;52.406;13.416;2023-08-06T07:40:46;100128.23;;;16.97;82.19
74790;BME280;63318;52.406;13.416;2023-08-06T07:43:15;100127.05;;;16.98;82.24
74790;BME280;63318;52.406;13.416;2023-08-06T07:45:43;100125.16;;;16.98;82.36
74790;BME280;63318;52.406;13.416;2023-08-06T07:48:11;100121.98;;;16.99;82.10
74790;BME280;63318;52.406;13.416;2023-08-06T07:50:39;100124.23;;;16.99;82.23
74790;BME280;63318;52.406;13.416;2023-08-06T07:53:07;100125.82;;;17.01;82.24
74790;BME280;63318;52.406;13.416;2023-08-06T07:55:35;100124.07;;;17.03;82.31
74790;BME280;63318;52.406;13.416;2023-08-06T07:58:04;100121.98;;;17.04;82.40
74790;BME280;63318;52.406;13.416;2023-08-06T08:00:32;100123.46;;;17.07;82.37
74790;BME280;63318;52.406;13.416;2023-08-06T08:03:00;100124.15;;;17.10;82.29
74790;BME280;63318;52.406;13.416;2023-08-06T08:05:28;100126.02;;;17.12;82.08
74790;BME280;63318;52.406;13.416;2023-08-06T08:07:56;100122.30;;;17.15;82.26
74790;BME280;63318;52.406;13.416;2023-08-06T08:10:25;100122.69;;;17.18;82.43
74790;BME280;63318;52.406;13.416;2023-08-06T08:12:53;100118.38;;;17.22;82.32
74790;BME280;63318;52.406;13.416;2023-08-06T08:15:21;100114.91;;;17.25;82.18
74790;BME280;63318;52.406;13.416;2023-08-06T08:17:49;100109.59;;;17.28;82.04
74790;BME280;63318;52.406;13.416;2023-08-06T08:20:18;100107.13;;;17.31;82.08
74790;BME280;63318;52.406;13.416;2023-08-06T08:22:46;100108.98;;;17.34;82.12
74790;BME280;63318;52.406;13.416;2023-08-06T08:25:15;100106.65;;;17.38;82.08
74790;BME280;63318;52.406;13.416;2023-08-06T08:27:43;100103.02;;;17.41;81.76
74790;BME280;63318;52.406;13.416;2023-08-06T08:30:12;100099.36;;;17.44;81.50
74790;BME280;63318;52.406;13.416;2023-08-06T08:32:40;100097.58;;;17.46;81.27
74790;BME280;63318;52.406;13.416;2023-08-06T08:35:10;100095.08;;;17.47;81.50
74790;BME280;63318;52.406;13.416;2023-08-06T08:37:40;100087.52;;;17.50;81.54
74790;BME280;63318;52.406;13.416;2023-08-06T08:40:10;100086.96;;;17.56;81.76
74790;BME280;63318;52.406;13.416;2023-08-06T08:42:39;100083.40;;;17.60;81.91
74790;BME280;63318;52.406;13.416;2023-08-06T08:45:12;100082.33;;;17.65;81.89
74790;BME280;63318;52.406;13.416;2023-08-06T08:47:41;100076.68;;;17.70;81.94
74790;BME280;63318;52.406;13.416;2023-08-06T08:50:11;100073.81;;;17.75;82.01
74790;BME280;63318;52.406;13.416;2023-08-06T08:52:40;100064.39;;;17.80;82.20
74790;BME280;63318;52.406;13.416;2023-08-06T08:55:10;100058.20;;;17.85;82.20
74790;BME280;63318;52.406;13.416;2023-08-06T08:57:38;100054.64;;;17.90;81.96
74790;BME280;63318;52.406;13.416;2023-08-06T09:00:10;100052.69;;;17.94;82.09
74790;BME280;63318;52.406;13.416;2023-08-06T09:02:39;100049.92;;;17.99;82.11
74790;BME280;63318;52.406;13.416;2023-08-06T09:05:08;100050.48;;;18.03;81.88
74790;BME280;63318;52.406;13.416;2023-08-06T09:07:42;100045.27;;;18.05;81.57
74790;BME280;63318;52.406;13.416;2023-08-06T09:10:12;100038.67;;;18.07;81.71
74790;BME280;63318;52.406;13.416;2023-08-06T09:12:42;100039.88;;;18.11;81.93
74790;BME280;63318;52.406;13.416;2023-08-06T09:15:11;100034.39;;;18.16;82.04
74790;BME280;63318;52.406;13.416;2023-08-06T09:17:40;100035.09;;;18.22;82.07
74790;BME280;63318;52.406;13.416;2023-08-06T09:20:13;100033.05;;;18.25;81.44
74790;BME280;63318;52.406;13.416;2023-08-06T09:22:41;100030.54;;;18.29;81.52
74790;BME280;63318;52.406;13.416;2023-08-06T09:25:10;100032.34;;;18.32;81.10
74790;BME280;63318;52.406;13.416;2023-08-06T09:27:38;100028.27;;;18.35;81.32
74790;BME280;63318;52.406;13.416;2023-08-06T09:30:08;100026.83;;;18.39;81.48
74790;BME280;63318;52.406;13.416;2023-08-06T09:32:49;100020.93;;;18.42;81.41
74790;BME280;63318;52.406;13.416;2023-08-06T09:35:21;100017.40;;;18.46;81.44
74790;BME280;63318;52.406;13.416;2023-08-06T09:37:49;100015.55;;;18.48;81.22
74790;BME280;63318;52.406;13.416;2023-08-06T09:40:30;100012.16;;;18.50;81.26
74790;BME280;63318;52.406;13.416;2023-08-06T09:43:00;100012.06;;;18.53;81.22
74790;BME280;63318;52.406;13.416;2023-08-06T09:45:31;100007.73;;;18.56;81.15
74790;BME280;63318;52.406;13.416;2023-08-06T09:48:00;100007.61;;;18.59;81.22
74790;BME280;63318;52.406;13.416;2023-08-06T09:50:33;100005.04;;;18.61;81.32
74790;BME280;63318;52.406;13.416;2023-08-06T09:53:02;100001.02;;;18.63;81.09
74790;BME280;63318;52.406;13.416;2023-08-06T09:55:30;99999.30;;;18.65;81.20
74790;BME280;63318;52.406;13.416;2023-08-06T09:58:00;99997.57;;;18.67;81.39
74790;BME280;63318;52.406;13.416;2023-08-06T10:00:28;99997.04;;;18.71;81.30
74790;BME280;63318;52.406;13.416;2023-08-06T10:03:00;99993.34;;;18.73;81.22
74790;BME280;63318;52.406;13.416;2023-08-06T10:05:27;99992.70;;;18.75;81.27
74790;BME280;63318;52.406;13.416;2023-08-06T10:07:56;99989.89;;;18.75;81.25
74790;BME280;63318;52.406;13.416;2023-08-06T10:10:25;99990.75;;;18.77;81.19
74790;BME280;63318;52.406;13.416;2023-08-06T10:12:56;99987.98;;;18.78;81.10
74790;BME280;63318;52.406;13.416;2023-08-06T10:15:28;99982.02;;;18.80;80.79
74790;BME280;63318;52.406;13.416;2023-08-06T10:17:59;99975.45;;;18.81;80.79
74790;BME280;63318;52.406;13.416;2023-08-06T10:20:34;99975.92;;;18.83;80.73
74790;BME280;63318;52.406;13.416;2023-08-06T10:23:04;99973.39;;;18.84;80.64
74790;BME280;63318;52.406;13.416;2023-08-06T10:25:34;99972.94;;;18.85;80.65
74790;BME280;63318;52.406;13.416;2023-08-06T10:28:08;99971.68;;;18.86;80.68
74790;BME280;63318;52.406;13.416;2023-08-06T10:30:43;99974.48;;;18.87;80.77
74790;BME280;63318;52.406;13.416;2023-08-06T10:33:12;99970.51;;;18.88;80.60
74790;BME280;63318;52.406;13.416;2023-08-06T10:35:42;99971.07;;;18.89;80.52
74790;BME280;63318;52.406;13.416;2023-08-06T10:38:12;99968.81;;;18.88;80.48
74790;BME280;63318;52.406;13.416;2023-08-06T10:40:43;99966.61;;;18.88;80.50
74790;BME280;63318;52.406;13.416;2023-08-06T10:43:26;99965.77;;;18.89;80.94
74790;BME280;63318;52.406;13.416;2023-08-06T10:45:56;99965.19;;;18.88;80.66
74790;BME280;63318;52.406;13.416;2023-08-06T10:48:33;99966.17;;;18.89;80.68
74790;BME280;63318;52.406;13.416;2023-08-06T10:51:02;99961.04;;;18.89;80.66
74790;BME280;63318;52.406;13.416;2023-08-06T10:53:31;99960.39;;;18.89;80.70
74790;BME280;63318;52.406;13.416;2023-08-06T10:56:00;99956.87;;;18.90;80.69
74790;BME280;63318;52.406;13.416;2023-08-06T10:58:32;99957.86;;;18.90;80.71
74790;BME280;63318;52.406;13.416;2023-08-06T11:01:01;99953.94;;;18.91;80.94
74790;BME280;63318;52.406;13.416;2023-08-06T11:03:29;99949.66;;;18.92;80.87
74790;BME280;63318;52.406;13.416;2023-08-06T11:05:59;99946.48;;;18.92;80.56
74790;BME280;63318;52.406;13.416;2023-08-06T11:08:29;99943.24;;;18.91;80.72
74790;BME280;63318;52.406;13.416;2023-08-06T11:11:09;99939.27;;;18.90;80.67
74790;BME280;63318;52.406;13.416;2023-08-06T11:13:37;99937.40;;;18.89;80.70
74790;BME280;63318;52.406;13.416;2023-08-06T11:16:06;99934.10;;;18.89;80.96
74790;BME280;63318;52.406;13.416;2023-08-06T11:18:35;99931.61;;;18.87;80.68
74790;BME280;63318;52.406;13.416;2023-08-06T11:21:03;99932.52;;;18.86;80.61
74790;BME280;63318;52.406;13.416;2023-08-06T11:23:32;99931.73;;;18.84;80.57
74790;BME280;63318;52.406;13.416;2023-08-06T11:26:00;99927.44;;;18.83;80.77
74790;BME280;63318;52.406;13.416;2023-08-06T11:28:29;99923.83;;;18.81;80.53
74790;BME280;63318;52.406;13.416;2023-08-06T11:30:57;99914.02;;;18.79;80.39
74790;BME280;63318;52.406;13.416;2023-08-06T11:33:26;99914.66;;;18.77;80.47
74790;BME280;63318;52.406;13.416;2023-08-06T11:35:56;99914.15;;;18.73;80.53
74790;BME280;63318;52.406;13.416;2023-08-06T11:38:28;99912.90;;;18.69;80.49
74790;BME280;63318;52.406;13.416;2023-08-06T11:40:56;99911.45;;;18.67;80.81
74790;BME280;63318;52.406;13.416;2023-08-06T11:43:24;99909.73;;;18.64;80.81
74790;BME280;63318;52.406;13.416;2023-08-06T11:45:54;99905.14;;;18.61;80.83
74790;BME280;63318;52.406;13.416;2023-08-06T11:48:23;99905.16;;;18.60;81.01
74790;BME280;63318;52.406;13.416;2023-08-06T11:50:55;99901.10;;;18.59;80.83
74790;BME280;63318;52.406;13.416;2023-08-06T11:53:28;99898.55;;;18.57;80.94
74790;BME280;63318;52.406;13.416;2023-08-06T11:55:56;99899.33;;;18.58;81.08
74790;BME280;63318;52.406;13.416;2023-08-06T11:58:25;99897.73;;;18.59;81.11
74790;BME280;63318;52.406;13.416;2023-08-06T12:00:54;99894.52;;;18.59;81.23
74790;BME280;63318;52.406;13.416;2023-08-06T12:03:22;99897.52;;;18.60;81.31
74790;BME280;63318;52.406;13.416;2023-08-06T12:05:55;99895.95;;;18.61;81.33
74790;BME280;63318;52.406;13.416;2023-08-06T12:08:27;99894.11;;;18.61;81.23
74790;BME280;63318;52.406;13.416;2023-08-06T12:10:55;99889.48;;;18.62;81.21
74790;BME280;63318;52.406;13.416;2023-08-06T12:13:24;99888.74;;;18.62;81.20
74790;BME280;63318;52.406;13.416;2023-08-06T12:15:53;99889.25;;;18.62;81.20
74790;BME280;63318;52.406;13.416;2023-08-06T12:18:21;99886.64;;;18.61;81.24
74790;BME280;63318;52.406;13.416;2023-08-06T12:20:50;99888.23;;;18.61;81.25
74790;BME280;63318;52.406;13.416;2023-08-06T12:23:18;99889.55;;;18.59;81.11
74790;BME280;63318;52.406;13.416;2023-08-06T12:25:46;99889.08;;;18.57;81.14
74790;BME280;63318;52.406;13.416;2023-08-06T12:28:14;99892.38;;;18.55;80.96
74790;BME280;63318;52.406;13.416;2023-08-06T12:30:42;99895.48;;;18.52;80.92
74790;BME280;63318;52.406;13.416;2023-08-06T12:33:10;99895.27;;;18.49;81.12
74790;BME280;63318;52.406;13.416;2023-08-06T12:35:38;99897.16;;;18.47;81.16
74790;BME280;63318;52.406;13.416;2023-08-06T12:38:06;99900.82;;;18.46;81.24
74790;BME280;63318;52.406;13.416;2023-08-06T12:40:35;99899.91;;;18.44;80.92
74790;BME280;63318;52.406;13.416;2023-08-06T12:43:03;99894.98;;;18.41;80.84
74790;BME280;63318;52.406;13.416;2023-08-06T12:45:31;99892.30;;;18.38;81.00
74790;BME280;63318;52.406;13.416;2023-08-06T12:47:59;99892.66;;;18.35;81.09
74790;BME280;63318;52.406;13.416;2023-08-06T12:50:27;99891.62;;;18.33;81.00
74790;BME280;63318;52.406;13.416;2023-08-06T12:52:56;99891.13;;;18.30;80.89